createdAt,value
2018-11-14T00:00:22.398Z,5.50
2018-11-14T00:03:04.181Z,6.00
2018-11-14T00:05:32.764Z,5.93
2018-11-14T00:08:01.239Z,5.63
2018-11-14T00:10:29.719Z,6.20
2018-11-14T00:12:58.213Z,5.80
2018-11-14T00:15:26.961Z,5.93
2018-11-14T00:17:55.652Z,6.27
2018-11-14T00:20:24.255Z,5.60
2018-11-14T00:22:52.806Z,5.80
2018-11-14T00:25:21.321Z,5.37
2018-11-14T00:27:49.759Z,6.10
2018-11-14T00:30:20.596Z,5.60
2018-11-14T00:32:49.310Z,5.53
2018-11-14T00:35:17.824Z,5.40
2018-11-14T00:37:46.716Z,5.47
2018-11-14T00:40:16.135Z,5.80
2018-11-14T00:42:45.140Z,5.27
2018-11-14T00:45:16.244Z,6.07
2018-11-14T00:47:45.771Z,6.40
2018-11-14T00:50:15.265Z,5.77
2018-11-14T00:52:44.352Z,5.60
2018-11-14T00:55:17.452Z,5.80
2018-11-14T00:57:46.941Z,5.60
2018-11-14T01:00:21.276Z,5.83
2018-11-14T01:02:49.712Z,5.40
2018-11-14T01:05:18.673Z,5.53
2018-11-14T01:07:47.203Z,6.03
2018-11-14T01:10:16.841Z,6.20
2018-11-14T01:12:45.919Z,5.47
2018-11-14T01:15:17.317Z,6.03
2018-11-14T01:17:45.781Z,5.73
2018-11-14T01:20:15.569Z,5.90
2018-11-14T01:22:44.564Z,6.10
2018-11-14T01:25:14.159Z,4.70
2018-11-14T01:27:43.041Z,5.97
2018-11-14T01:30:18.200Z,5.77
2018-11-14T01:32:47.387Z,5.77
2018-11-14T01:35:16.475Z,5.37
2018-11-14T01:37:44.924Z,5.00
2018-11-14T01:40:16.318Z,6.23
2018-11-14T01:42:46.433Z,6.33
2018-11-14T01:45:14.878Z,5.57
2018-11-14T01:47:43.362Z,6.37
2018-11-14T01:50:12.071Z,5.83
2018-11-14T01:52:40.557Z,5.83
2018-11-14T01:55:12.214Z,5.87
2018-11-14T01:57:40.692Z,5.47
2018-11-14T02:00:14.632Z,5.73
2018-11-14T02:02:43.205Z,6.23
2018-11-14T02:05:12.109Z,6.07
2018-11-14T02:07:40.627Z,6.23
2018-11-14T02:10:11.720Z,5.60
2018-11-14T02:12:40.671Z,5.93
2018-11-14T02:15:11.319Z,5.80
2018-11-14T02:17:39.918Z,6.20
2018-11-14T02:20:08.921Z,5.50
2018-11-14T02:22:37.443Z,6.03
2018-11-14T02:25:06.576Z,5.93
2018-11-14T02:27:35.049Z,5.70
2018-11-14T02:30:03.519Z,5.33
2018-11-14T02:32:31.980Z,5.93
2018-11-14T02:35:00.490Z,5.67
2018-11-14T02:37:28.976Z,5.93
2018-11-14T02:39:57.424Z,5.60
2018-11-14T02:42:25.864Z,5.93
2018-11-14T02:44:54.427Z,6.07
2018-11-14T02:47:22.907Z,6.60
2018-11-14T02:49:51.468Z,5.90
2018-11-14T02:52:19.949Z,6.07
2018-11-14T02:54:48.375Z,5.93
2018-11-14T02:57:16.799Z,5.27
2018-11-14T02:59:45.599Z,5.90
2018-11-14T03:02:14.053Z,6.03
2018-11-14T03:04:42.521Z,6.83
2018-11-14T03:07:10.940Z,5.93
2018-11-14T03:09:39.397Z,6.30
2018-11-14T03:12:07.868Z,6.97
2018-11-14T03:14:36.327Z,7.07
2018-11-14T03:17:05.175Z,7.27
2018-11-14T03:19:33.619Z,6.53
2018-11-14T03:22:02.062Z,6.73
2018-11-14T03:24:30.495Z,6.67
2018-11-14T03:26:58.970Z,7.00
2018-11-14T03:29:27.403Z,6.63
2018-11-14T03:31:55.802Z,6.60
2018-11-14T03:34:24.219Z,7.13
2018-11-14T03:36:52.739Z,8.00
2018-11-14T03:39:21.231Z,7.60
2018-11-14T03:41:49.716Z,7.60
2018-11-14T03:44:18.161Z,7.03
2018-11-14T03:46:47.099Z,7.70
2018-11-14T03:49:15.506Z,7.33
2018-11-14T03:51:43.959Z,6.53
2018-11-14T03:54:12.462Z,7.77
2018-11-14T03:56:40.906Z,6.87
2018-11-14T03:59:09.331Z,6.40
2018-11-14T04:01:37.804Z,6.30
2018-11-14T04:04:06.576Z,5.83
2018-11-14T04:06:35.056Z,6.17
2018-11-14T04:09:05.024Z,6.80
2018-11-14T04:11:33.435Z,6.23
2018-11-14T04:14:01.920Z,6.67
2018-11-14T04:16:30.422Z,6.47
2018-11-14T04:18:58.908Z,6.77
2018-11-14T04:21:27.347Z,6.60
2018-11-14T04:23:55.809Z,6.50
2018-11-14T04:26:24.212Z,6.73
2018-11-14T04:28:53.024Z,6.20
2018-11-14T04:31:21.480Z,6.53
2018-11-14T04:33:49.965Z,7.13
2018-11-14T04:36:18.402Z,6.33
2018-11-14T04:38:46.832Z,7.10
2018-11-14T04:41:15.276Z,7.30
2018-11-14T04:43:43.687Z,6.33
2018-11-14T04:46:12.116Z,7.80
2018-11-14T04:48:40.578Z,7.47
2018-11-14T04:51:09.058Z,8.27
2018-11-14T04:53:37.527Z,8.60
2018-11-14T04:56:06.441Z,8.13
2018-11-14T04:58:34.916Z,7.93
2018-11-14T05:01:03.389Z,8.30
2018-11-14T05:03:31.891Z,8.10
2018-11-14T05:06:00.355Z,7.83
2018-11-14T05:08:28.808Z,9.37
2018-11-14T05:10:57.268Z,8.20
2018-11-14T05:13:25.759Z,8.27
2018-11-14T05:15:54.596Z,9.03
2018-11-14T05:18:23.039Z,8.10
2018-11-14T05:20:51.519Z,8.60
2018-11-14T05:23:19.992Z,8.40
2018-11-14T05:25:48.473Z,8.37
2018-11-14T05:28:16.947Z,8.10
2018-11-14T05:30:45.360Z,8.37
2018-11-14T05:33:13.771Z,8.73
2018-11-14T05:35:42.283Z,8.47
2018-11-14T05:38:10.780Z,8.40
2018-11-14T05:40:39.227Z,8.97
2018-11-14T05:43:07.639Z,8.47
2018-11-14T05:45:36.188Z,8.53
2018-11-14T05:48:05.191Z,8.80
2018-11-14T05:50:33.726Z,9.13
2018-11-14T05:53:02.247Z,8.60
2018-11-14T05:55:30.699Z,8.80
2018-11-14T05:57:59.530Z,8.93
2018-11-14T06:00:29.093Z,8.97
2018-11-14T06:02:58.394Z,10.70
2018-11-14T06:05:27.174Z,10.00
2018-11-14T06:07:55.722Z,9.37
2018-11-14T06:10:24.237Z,9.67
2018-11-14T06:12:52.679Z,9.27
2018-11-14T06:15:21.626Z,8.80
2018-11-14T06:17:51.113Z,8.43
2018-11-14T06:20:20.792Z,9.37
2018-11-14T06:22:50.102Z,8.63
2018-11-14T06:25:27.604Z,9.70
2018-11-14T06:27:57.117Z,8.87
2018-11-14T06:30:25.848Z,8.97
2018-11-14T06:32:54.889Z,9.07
2018-11-14T06:35:23.651Z,8.13
2018-11-14T06:37:52.797Z,7.87
2018-11-14T06:40:21.279Z,7.83
2018-11-14T06:42:49.787Z,8.47
2018-11-14T06:45:19.629Z,8.43
2018-11-14T06:47:49.130Z,8.67
2018-11-14T06:50:17.608Z,8.37
2018-11-14T06:52:47.128Z,8.47
2018-11-14T06:55:16.596Z,8.37
2018-11-14T06:57:45.104Z,7.77
2018-11-14T07:00:17.001Z,8.70
2018-11-14T07:02:46.986Z,9.03
2018-11-14T07:05:16.838Z,9.80
2018-11-14T07:07:45.369Z,10.80
2018-11-14T07:10:15.581Z,10.43
2018-11-14T07:12:44.072Z,9.97
2018-11-14T07:15:14.530Z,11.03
2018-11-14T07:17:43.491Z,11.10
2018-11-14T07:20:21.335Z,12.03
2018-11-14T07:22:49.912Z,11.57
2018-11-14T07:25:18.348Z,12.47
2018-11-14T07:27:46.892Z,11.43
2018-11-14T07:30:18.600Z,10.93
2018-11-14T07:32:48.413Z,11.43
2018-11-14T07:35:17.392Z,11.43
2018-11-14T07:38:51.807Z,11.80
2018-11-14T07:41:28.734Z,10.90
2018-11-14T07:43:57.276Z,11.03
2018-11-14T07:46:27.065Z,10.83
2018-11-14T07:48:55.580Z,11.60
2018-11-14T07:51:23.992Z,11.23
2018-11-14T07:53:52.879Z,10.97
2018-11-14T07:56:21.641Z,10.43
2018-11-14T07:58:50.122Z,10.20
2018-11-14T08:01:18.639Z,9.90
2018-11-14T08:03:47.129Z,10.20
2018-11-14T08:06:15.874Z,9.37
2018-11-14T08:08:44.732Z,10.40
2018-11-14T08:11:13.208Z,10.33
2018-11-14T08:13:43.247Z,10.03
2018-11-14T08:16:12.075Z,9.20
2018-11-14T08:18:40.615Z,9.40
2018-11-14T08:21:09.807Z,9.97
2018-11-14T08:23:38.265Z,9.57
2018-11-14T08:26:07.455Z,8.47
2018-11-14T08:28:35.963Z,8.60
2018-11-14T08:31:04.512Z,8.43
2018-11-14T08:33:33.011Z,7.97
2018-11-14T08:36:01.432Z,8.10
2018-11-14T08:38:29.893Z,8.17
2018-11-14T08:40:58.350Z,8.13
2018-11-14T08:43:26.813Z,7.57
2018-11-14T08:45:55.299Z,7.93
2018-11-14T08:48:23.749Z,7.37
2018-11-14T08:50:52.244Z,7.83
2018-11-14T08:53:20.714Z,7.60
2018-11-14T08:55:49.177Z,8.00
2018-11-14T08:58:17.625Z,8.23
2018-11-14T09:00:46.134Z,7.57
2018-11-14T09:03:15.225Z,7.50
2018-11-14T09:05:43.804Z,7.17
2018-11-14T09:08:12.236Z,7.23
2018-11-14T09:10:40.703Z,7.53
2018-11-14T09:13:12.831Z,8.03
2018-11-14T09:15:41.511Z,7.43
2018-11-14T09:18:09.970Z,7.63
2018-11-14T09:20:38.425Z,8.43
2018-11-14T09:23:07.223Z,7.60
2018-11-14T09:25:35.868Z,7.77
2018-11-14T09:28:04.417Z,7.10
2018-11-14T09:30:32.900Z,6.70
2018-11-14T09:33:01.437Z,6.70
2018-11-14T09:35:29.816Z,7.77
2018-11-14T09:37:59.451Z,6.60
2018-11-14T09:40:28.863Z,7.50
2018-11-14T09:42:57.399Z,7.43
2018-11-14T09:45:27.147Z,7.70
2018-11-14T09:47:55.703Z,7.50
2018-11-14T09:50:26.370Z,7.90
2018-11-14T09:52:57.212Z,7.90
2018-11-14T09:55:25.648Z,7.67
2018-11-14T09:57:54.136Z,8.70
2018-11-14T10:00:24.102Z,8.50
2018-11-14T10:02:55.259Z,9.70
2018-11-14T10:05:24.458Z,9.73
2018-11-14T10:07:52.980Z,9.17
2018-11-14T10:10:22.381Z,9.90
2018-11-14T10:12:50.881Z,11.30
2018-11-14T10:15:23.035Z,10.47
2018-11-14T10:17:51.604Z,10.77
2018-11-14T10:20:21.579Z,10.43
2018-11-14T10:22:50.377Z,10.03
2018-11-14T10:25:19.711Z,10.87
2018-11-14T10:27:48.934Z,10.53
2018-11-14T10:30:20.039Z,10.50
2018-11-14T10:32:49.054Z,9.87
2018-11-14T10:35:17.522Z,10.73
2018-11-14T10:37:46.045Z,9.83
2018-11-14T10:40:17.857Z,10.07
2018-11-14T10:42:46.465Z,9.40
2018-11-14T10:45:16.026Z,9.73
2018-11-14T10:47:44.594Z,9.10
2018-11-14T10:50:15.302Z,7.63
2018-11-14T10:52:43.826Z,7.10
2018-11-14T10:55:13.179Z,6.83
2018-11-14T10:57:41.648Z,8.03
2018-11-14T11:00:31.986Z,7.00
2018-11-14T11:03:06.644Z,6.40
2018-11-14T11:05:44.203Z,6.10
2018-11-14T11:08:19.131Z,6.00
2018-11-14T11:10:53.058Z,5.43
2018-11-14T11:13:27.024Z,5.63
2018-11-14T11:16:00.856Z,6.13
2018-11-14T11:18:31.058Z,5.73
2018-11-14T11:20:59.553Z,5.50
2018-11-14T11:23:28.031Z,6.37
2018-11-14T11:25:56.447Z,6.20
2018-11-14T11:28:25.174Z,5.40
2018-11-14T11:30:53.641Z,5.83
2018-11-14T11:33:22.166Z,5.40
2018-11-14T11:35:50.763Z,4.80
2018-11-14T11:38:19.223Z,5.00
2018-11-14T11:40:47.744Z,5.40
2018-11-14T11:43:16.343Z,5.63
2018-11-14T11:45:44.786Z,4.87
2018-11-14T11:48:13.385Z,5.63
2018-11-14T11:50:41.823Z,5.07
2018-11-14T11:53:10.343Z,4.70
2018-11-14T11:55:38.855Z,4.67
2018-11-14T11:58:07.395Z,4.90
2018-11-14T12:00:36.013Z,4.87
2018-11-14T12:03:04.362Z,5.10
2018-11-14T12:05:32.956Z,4.50
2018-11-14T12:08:01.368Z,4.83
2018-11-14T12:10:30.298Z,4.60
2018-11-14T12:12:58.707Z,4.43
2018-11-14T12:15:27.202Z,4.10
2018-11-14T12:17:55.769Z,4.47
2018-11-14T12:20:24.166Z,4.20
2018-11-14T12:22:52.638Z,4.47
2018-11-14T12:25:21.126Z,4.30
2018-11-14T12:27:49.579Z,4.40
2018-11-14T12:30:18.541Z,4.33
2018-11-14T12:32:47.042Z,4.43
2018-11-14T12:35:16.367Z,3.97
2018-11-14T12:37:45.442Z,3.73
2018-11-14T12:40:14.699Z,3.77
2018-11-14T12:42:43.139Z,3.70
2018-11-14T12:45:13.215Z,3.57
2018-11-14T12:47:41.689Z,3.70
2018-11-14T12:50:11.445Z,3.77
2018-11-14T12:52:40.241Z,4.07
2018-11-14T12:55:11.188Z,4.20
2018-11-14T12:57:39.708Z,4.30
2018-11-14T13:00:10.276Z,4.13
2018-11-14T13:02:38.735Z,4.67
2018-11-14T13:05:08.083Z,4.50
2018-11-14T13:07:36.722Z,3.80
2018-11-14T13:10:06.497Z,3.47
2018-11-14T13:12:35.177Z,3.73
2018-11-14T13:15:03.757Z,3.77
2018-11-14T13:17:32.246Z,3.80
2018-11-14T13:20:00.991Z,3.47
2018-11-14T13:22:29.467Z,3.73
2018-11-14T13:24:57.979Z,3.83
2018-11-14T13:27:26.472Z,3.70
2018-11-14T13:29:54.935Z,3.00
2018-11-14T13:32:23.476Z,3.27
2018-11-14T13:34:51.971Z,3.37
2018-11-14T13:37:20.446Z,3.40
2018-11-14T13:39:48.918Z,3.53
2018-11-14T13:42:17.428Z,3.33
2018-11-14T13:44:45.931Z,3.53
2018-11-14T13:47:14.439Z,3.40
2018-11-14T13:49:43.028Z,3.10
2018-11-14T13:52:11.364Z,2.97
2018-11-14T13:54:39.881Z,3.63
2018-11-14T13:57:08.427Z,3.87
2018-11-14T13:59:36.904Z,3.70
2018-11-14T14:02:05.528Z,3.90
2018-11-14T14:04:33.996Z,3.80
2018-11-14T14:07:02.554Z,4.10
2018-11-14T14:09:31.123Z,3.87
2018-11-14T14:11:59.527Z,3.80
2018-11-14T14:14:28.008Z,3.93
2018-11-14T14:16:56.502Z,3.77
2018-11-14T14:19:25.020Z,3.83
2018-11-14T14:21:53.487Z,3.57
2018-11-14T14:24:22.001Z,3.60
2018-11-14T14:26:50.467Z,3.60
2018-11-14T14:29:18.979Z,3.90
2018-11-14T14:31:47.483Z,3.70
2018-11-14T14:34:16.091Z,3.60
2018-11-14T14:36:44.550Z,3.20
2018-11-14T14:39:13.646Z,3.13
2018-11-14T14:41:42.502Z,3.30
2018-11-14T14:44:11.039Z,3.03
2018-11-14T14:46:39.542Z,3.70
2018-11-14T14:49:08.033Z,3.40
2018-11-14T14:51:36.557Z,3.70
2018-11-14T14:54:05.237Z,3.40
2018-11-14T14:56:33.741Z,3.00
2018-11-14T14:59:02.238Z,3.57
2018-11-14T15:01:30.767Z,3.33
2018-11-14T15:03:59.363Z,3.23
2018-11-14T15:06:27.874Z,3.17
2018-11-14T15:08:56.351Z,3.30
2018-11-14T15:11:24.854Z,3.27
2018-11-14T15:13:53.592Z,3.20
2018-11-14T15:16:22.227Z,2.90
2018-11-14T15:18:50.712Z,3.23
2018-11-14T15:21:19.203Z,3.10
2018-11-14T15:23:48.068Z,3.10
2018-11-14T15:26:16.584Z,2.80
2018-11-14T15:28:45.098Z,3.20
2018-11-14T15:31:13.491Z,3.10
2018-11-14T15:33:41.950Z,3.40
2018-11-14T15:36:10.453Z,3.10
2018-11-14T15:38:39.155Z,3.00
2018-11-14T15:41:07.816Z,3.70
2018-11-14T15:43:36.678Z,3.60
2018-11-14T15:46:05.456Z,3.33
2018-11-14T15:48:33.956Z,3.20
2018-11-14T15:51:02.539Z,3.40
2018-11-14T15:53:31.012Z,3.87
2018-11-14T15:55:59.572Z,3.70
2018-11-14T15:58:28.139Z,3.17
2018-11-14T16:00:56.592Z,3.67
2018-11-14T16:03:25.084Z,4.07
2018-11-14T16:05:53.579Z,3.43
2018-11-14T16:08:22.121Z,3.67
2018-11-14T16:10:51.097Z,3.70
2018-11-14T16:13:19.649Z,4.13
2018-11-14T16:15:48.155Z,3.40
2018-11-14T16:18:16.739Z,3.47
2018-11-14T16:20:45.199Z,3.70
2018-11-14T16:23:13.632Z,3.30
2018-11-14T16:25:42.342Z,3.60
2018-11-14T16:28:10.924Z,3.60
2018-11-14T16:30:39.425Z,3.60
2018-11-14T16:33:08.696Z,3.60
2018-11-14T16:35:37.230Z,3.37
2018-11-14T16:38:06.864Z,3.70
2018-11-14T16:40:35.726Z,3.80
2018-11-14T16:43:06.589Z,3.97
2018-11-14T16:45:35.180Z,4.43
2018-11-14T16:48:03.810Z,3.70
2018-11-14T16:50:32.279Z,4.40
2018-11-14T16:53:00.902Z,4.30
2018-11-14T16:55:29.418Z,4.30
2018-11-14T16:57:58.299Z,4.43
2018-11-14T17:00:28.185Z,4.93
2018-11-14T17:02:56.767Z,5.87
2018-11-14T17:05:26.447Z,5.27
2018-11-14T17:07:55.373Z,5.37
2018-11-14T17:10:24.197Z,5.47
2018-11-14T17:12:54.390Z,5.73
2018-11-14T17:15:24.104Z,5.90
2018-11-14T17:17:52.706Z,6.50
2018-11-14T17:20:21.803Z,6.57
2018-11-14T17:22:51.241Z,6.63
2018-11-14T17:25:20.047Z,6.53
2018-11-14T17:27:48.994Z,6.30
2018-11-14T17:30:19.988Z,7.20
2018-11-14T17:32:48.572Z,6.77
2018-11-14T17:35:17.558Z,6.70
2018-11-14T17:37:46.500Z,6.80
2018-11-14T17:40:17.367Z,6.60
2018-11-14T17:42:46.815Z,7.30
2018-11-14T17:45:17.788Z,7.60
2018-11-14T17:47:46.940Z,6.93
2018-11-14T17:50:18.563Z,6.93
2018-11-14T17:52:48.076Z,7.63
2018-11-14T17:55:17.390Z,8.70
2018-11-14T17:57:45.863Z,7.47
2018-11-14T18:00:16.889Z,8.70
2018-11-14T18:02:45.851Z,8.83
2018-11-14T18:05:16.772Z,9.10
2018-11-14T18:07:45.829Z,10.00
2018-11-14T18:10:15.737Z,10.90
2018-11-14T18:12:47.869Z,9.63
2018-11-14T18:15:16.650Z,10.23
2018-11-14T18:17:45.627Z,10.60
2018-11-14T18:20:17.544Z,11.67
2018-11-14T18:22:46.816Z,9.97
2018-11-14T18:25:15.812Z,9.67
2018-11-14T18:27:44.370Z,10.43
2018-11-14T18:30:17.972Z,10.10
2018-11-14T18:32:46.515Z,9.77
2018-11-14T18:35:16.360Z,9.63
2018-11-14T18:37:45.788Z,10.17
2018-11-14T18:40:15.753Z,10.40
2018-11-14T18:42:44.383Z,9.80
2018-11-14T18:45:17.012Z,10.33
2018-11-14T18:47:46.164Z,10.20
2018-11-14T18:50:15.416Z,10.33
2018-11-14T18:52:44.720Z,11.53
2018-11-14T18:55:14.655Z,11.27
2018-11-14T18:57:43.618Z,10.80
2018-11-14T19:00:18.382Z,10.47
2018-11-14T19:02:47.151Z,10.83
2018-11-14T19:05:16.494Z,11.10
2018-11-14T19:07:45.132Z,11.50
2018-11-14T19:10:15.025Z,10.33
2018-11-14T19:12:44.214Z,12.47
2018-11-14T19:15:17.345Z,12.03
2018-11-14T19:17:45.898Z,12.13
2018-11-14T19:20:15.831Z,10.67
2018-11-14T19:22:44.639Z,11.80
2018-11-14T19:25:15.424Z,12.47
2018-11-14T19:27:44.736Z,11.10
2018-11-14T19:30:14.886Z,12.20
2018-11-14T19:32:44.843Z,12.17
2018-11-14T19:35:14.046Z,13.10
2018-11-14T19:37:44.063Z,12.50
2018-11-14T19:40:16.649Z,12.97
2018-11-14T19:42:45.917Z,13.03
2018-11-14T19:45:18.038Z,12.53
2018-11-14T19:47:46.668Z,13.93
2018-11-14T19:50:16.552Z,14.23
2018-11-14T19:52:45.681Z,12.80
2018-11-14T19:55:15.548Z,14.17
2018-11-14T19:57:45.206Z,13.47
2018-11-14T20:00:17.328Z,14.53
2018-11-14T20:02:45.915Z,14.30
2018-11-14T20:05:15.390Z,15.37
2018-11-14T20:07:44.040Z,14.43
2018-11-14T20:10:14.559Z,15.07
2018-11-14T20:12:43.207Z,13.93
2018-11-14T20:15:14.144Z,16.13
2018-11-14T20:17:43.869Z,16.90
2018-11-14T20:20:14.944Z,15.77
2018-11-14T20:22:44.223Z,17.20
2018-11-14T20:25:13.192Z,18.07
2018-11-14T20:27:41.996Z,18.70
2018-11-14T20:30:13.624Z,20.23
2018-11-14T20:32:42.211Z,21.17
2018-11-14T20:35:12.037Z,22.77
2018-11-14T20:37:41.014Z,22.53
2018-11-14T20:40:11.477Z,22.53
2018-11-14T20:42:40.112Z,23.33
2018-11-14T20:45:11.795Z,22.70
2018-11-14T20:47:40.345Z,23.50
2018-11-14T20:50:11.534Z,23.43
2018-11-14T20:52:40.059Z,24.10
2018-11-14T20:55:09.502Z,24.50
2018-11-14T20:57:38.914Z,24.03
2018-11-14T21:00:14.499Z,24.47
2018-11-14T21:02:43.440Z,23.67
2018-11-14T21:05:12.765Z,26.07
2018-11-14T21:07:42.287Z,23.97
2018-11-14T21:10:12.883Z,24.60
2018-11-14T21:12:41.781Z,26.03
2018-11-14T21:15:12.909Z,24.60
2018-11-14T21:17:41.679Z,24.23
2018-11-14T21:20:10.684Z,25.83
2018-11-14T21:22:39.638Z,25.67
2018-11-14T21:25:09.834Z,25.93
2018-11-14T21:27:38.830Z,24.67
2018-11-14T21:30:09.283Z,26.47
2018-11-14T21:32:38.516Z,25.53
2018-11-14T21:35:10.386Z,25.93
2018-11-14T21:37:38.882Z,26.77
2018-11-14T21:40:08.675Z,25.73
2018-11-14T21:42:37.444Z,25.43
2018-11-14T21:45:07.528Z,24.07
2018-11-14T21:47:41.331Z,25.00
2018-11-14T21:50:09.887Z,23.67
2018-11-14T21:52:38.480Z,25.50
2018-11-14T21:55:08.081Z,25.67
2018-11-14T21:57:36.631Z,24.73
2018-11-14T22:00:08.027Z,23.80
2018-11-14T22:02:36.508Z,23.27
2018-11-14T22:05:05.627Z,23.70
2018-11-14T22:07:34.119Z,23.67
2018-11-14T22:10:02.624Z,23.40
2018-11-14T22:12:31.078Z,22.40
2018-11-14T22:14:59.601Z,22.87
2018-11-14T22:17:28.078Z,22.70
2018-11-14T22:19:56.579Z,22.93
2018-11-14T22:22:25.027Z,22.50
2018-11-14T22:24:53.514Z,22.30
2018-11-14T22:27:22.410Z,22.93
2018-11-14T22:29:50.934Z,22.80
2018-11-14T22:32:19.394Z,22.43
2018-11-14T22:34:47.919Z,22.63
2018-11-14T22:37:16.397Z,22.73
2018-11-14T22:39:44.885Z,24.23
2018-11-14T22:42:13.341Z,24.60
2018-11-14T22:44:41.796Z,25.03
2018-11-14T22:47:10.440Z,24.03
2018-11-14T22:49:38.858Z,24.37
2018-11-14T22:52:07.371Z,23.47
2018-11-14T22:54:35.792Z,24.87
2018-11-14T22:57:04.455Z,24.60
2018-11-14T22:59:32.944Z,24.33
2018-11-14T23:02:01.464Z,24.30
2018-11-14T23:04:29.932Z,23.47
2018-11-14T23:06:59.411Z,23.63
2018-11-14T23:09:27.880Z,25.43
2018-11-14T23:11:56.389Z,25.23
2018-11-14T23:14:25.129Z,24.43
2018-11-14T23:16:53.568Z,24.60
2018-11-14T23:19:22.040Z,26.83
2018-11-14T23:21:50.547Z,25.73
2018-11-14T23:24:19.075Z,24.97
2018-11-14T23:26:47.518Z,24.83
2018-11-14T23:29:16.090Z,24.47
2018-11-14T23:31:44.573Z,24.77
2018-11-14T23:34:13.139Z,25.63
2018-11-14T23:36:41.614Z,24.63
2018-11-14T23:39:12.252Z,24.50
2018-11-14T23:41:40.750Z,24.87
2018-11-14T23:44:09.579Z,24.13
2018-11-14T23:46:38.044Z,24.43
2018-11-14T23:49:06.501Z,23.83
2018-11-14T23:51:34.936Z,23.17
2018-11-14T23:54:03.452Z,24.17
2018-11-14T23:56:31.910Z,24.47
2018-11-14T23:59:00.379Z,22.50
